createdAt,value
2022-08-26T00:00:18.976Z,98998.80
2022-08-26T00:02:24.200Z,98995.30
2022-08-26T00:04:29.249Z,98993.38
2022-08-26T00:06:35.175Z,98989.42
2022-08-26T00:08:40.598Z,98990.23
2022-08-26T00:10:46.469Z,98985.20
2022-08-26T00:12:51.864Z,98987.30
2022-08-26T00:14:56.669Z,98983.83
2022-08-26T00:17:01.477Z,98981.04
2022-08-26T00:19:06.274Z,98979.13
2022-08-26T00:21:12.849Z,98978.56
2022-08-26T00:23:17.854Z,98975.52
2022-08-26T00:25:22.999Z,98976.58
2022-08-26T00:27:30.381Z,98977.98
2022-08-26T00:29:37.877Z,98975.30
2022-08-26T00:31:42.899Z,98980.34
2022-08-26T00:33:50.076Z,98972.46
2022-08-26T00:35:55.098Z,98969.39
2022-08-26T00:38:00.846Z,98966.77
2022-08-26T00:40:08.919Z,98967.83
2022-08-26T00:42:16.090Z,98968.55
2022-08-26T00:44:20.902Z,98971.45
2022-08-26T00:46:29.679Z,98964.70
2022-08-26T00:48:37.679Z,98967.83
2022-08-26T00:50:48.416Z,98963.33
2022-08-26T00:52:54.749Z,98963.11
2022-08-26T00:55:09.203Z,98964.45
2022-08-26T00:57:18.054Z,98966.41
2022-08-26T00:59:24.019Z,98966.34
2022-08-26T01:01:28.804Z,98968.14
2022-08-26T01:03:37.434Z,98965.06
2022-08-26T01:05:43.055Z,98963.52
2022-08-26T01:07:47.906Z,98965.77
2022-08-26T01:09:55.004Z,98962.48
2022-08-26T01:12:02.909Z,98967.04
2022-08-26T01:14:08.680Z,98964.41
2022-08-26T01:16:16.157Z,98964.66
2022-08-26T01:18:22.160Z,98968.16
2022-08-26T01:20:36.405Z,98968.32
2022-08-26T01:22:48.734Z,98970.67
2022-08-26T01:24:59.838Z,98969.09
2022-08-26T01:27:08.964Z,98964.30
2022-08-26T01:29:18.588Z,98968.28
2022-08-26T01:31:27.841Z,98968.53
2022-08-26T01:33:42.103Z,98965.89
2022-08-26T01:35:47.939Z,98965.95
2022-08-26T01:37:55.931Z,98968.17
2022-08-26T01:40:00.980Z,98967.97
2022-08-26T01:42:10.265Z,98969.23
2022-08-26T01:44:19.920Z,98971.48
2022-08-26T01:46:26.825Z,98967.67
2022-08-26T01:48:34.111Z,98970.15
2022-08-26T01:50:43.454Z,98970.05
2022-08-26T01:53:04.741Z,98967.48
2022-08-26T01:55:12.312Z,98965.05
2022-08-26T01:57:19.409Z,98966.20
2022-08-26T01:59:25.490Z,98966.73
2022-08-26T02:01:31.323Z,98963.87
2022-08-26T02:03:42.283Z,98965.34
2022-08-26T02:05:51.511Z,98966.77
2022-08-26T02:07:57.095Z,98968.27
2022-08-26T02:10:02.509Z,98968.32
2022-08-26T02:12:10.742Z,98969.86
2022-08-26T02:14:19.333Z,98968.14
2022-08-26T02:16:27.008Z,98965.59
2022-08-26T02:18:37.272Z,98963.09
2022-08-26T02:20:42.086Z,98964.02
2022-08-26T02:22:47.165Z,98963.15
2022-08-26T02:24:54.084Z,98964.19
2022-08-26T02:27:00.403Z,98964.92
2022-08-26T02:29:09.775Z,98962.15
2022-08-26T02:31:14.560Z,98957.75
2022-08-26T02:33:19.260Z,98962.64
2022-08-26T02:35:25.614Z,98958.04
2022-08-26T02:37:32.006Z,98957.65
2022-08-26T02:39:40.929Z,98954.94
2022-08-26T02:41:45.617Z,98951.92
2022-08-26T02:43:50.285Z,98952.62
2022-08-26T02:45:55.151Z,98951.65
2022-08-26T02:47:59.893Z,98948.40
2022-08-26T02:50:06.582Z,98947.32
2022-08-26T02:52:13.257Z,98950.95
2022-08-26T02:54:20.098Z,98945.81
2022-08-26T02:56:25.363Z,98950.80
2022-08-26T02:58:30.364Z,98950.54
2022-08-26T03:00:38.071Z,98949.18
2022-08-26T03:02:43.329Z,98948.23
2022-08-26T03:04:58.042Z,98945.59
2022-08-26T03:07:07.466Z,98947.48
2022-08-26T03:09:18.573Z,98945.53
2022-08-26T03:11:24.102Z,98943.76
2022-08-26T03:13:29.464Z,98945.89
2022-08-26T03:15:34.548Z,98941.85
2022-08-26T03:17:39.294Z,98945.06
2022-08-26T03:19:44.429Z,98947.59
2022-08-26T03:21:50.213Z,98945.27
2022-08-26T03:23:58.739Z,98943.73
2022-08-26T03:26:04.417Z,98948.34
2022-08-26T03:28:09.662Z,98948.68
2022-08-26T03:30:15.979Z,98948.48
2022-08-26T03:32:20.696Z,98948.53
2022-08-26T03:34:25.510Z,98947.93
2022-08-26T03:36:30.593Z,98943.74
2022-08-26T03:38:35.235Z,98944.12
2022-08-26T03:40:40.549Z,98943.63
2022-08-26T03:42:45.640Z,98939.98
2022-08-26T03:44:50.565Z,98937.77
2022-08-26T03:46:55.742Z,98935.23
2022-08-26T03:49:01.454Z,98934.52
2022-08-26T03:51:11.450Z,98935.87
2022-08-26T03:53:16.335Z,98936.36
2022-08-26T03:55:28.335Z,98935.11
2022-08-26T03:57:33.051Z,98938.67
2022-08-26T03:59:37.792Z,98936.52
2022-08-26T04:01:46.206Z,98939.86
2022-08-26T04:03:52.813Z,98942.36
2022-08-26T04:05:57.507Z,98939.00
2022-08-26T04:08:02.360Z,98941.17
2022-08-26T04:10:08.787Z,98937.77
2022-08-26T04:12:14.711Z,98939.63
2022-08-26T04:14:22.061Z,98941.38
2022-08-26T04:16:27.407Z,98938.41
2022-08-26T04:18:37.061Z,98941.61
2022-08-26T04:20:42.044Z,98940.31
2022-08-26T04:22:46.972Z,98938.08
2022-08-26T04:24:51.777Z,98937.91
2022-08-26T04:26:56.516Z,98940.80
2022-08-26T04:29:01.208Z,98944.70
2022-08-26T04:31:06.182Z,98944.71
2022-08-26T04:33:12.980Z,98939.78
2022-08-26T04:35:18.181Z,98942.83
2022-08-26T04:37:24.841Z,98946.36
2022-08-26T04:39:29.645Z,98947.24
2022-08-26T04:41:36.768Z,98947.95
2022-08-26T04:43:41.620Z,98948.12
2022-08-26T04:45:46.425Z,98944.36
2022-08-26T04:47:54.307Z,98942.16
2022-08-26T04:49:59.046Z,98942.59
2022-08-26T04:52:04.372Z,98944.36
2022-08-26T04:54:09.850Z,98944.98
2022-08-26T04:56:19.057Z,98947.30
2022-08-26T04:58:25.385Z,98947.53
2022-08-26T05:00:30.495Z,98943.94
2022-08-26T05:02:35.563Z,98945.98
2022-08-26T05:04:40.347Z,98945.91
2022-08-26T05:06:45.326Z,98949.92
2022-08-26T05:08:50.110Z,98950.99
2022-08-26T05:10:55.570Z,98951.41
2022-08-26T05:13:00.669Z,98951.23
2022-08-26T05:15:06.704Z,98950.41
2022-08-26T05:17:14.924Z,98950.64
2022-08-26T05:19:19.895Z,98948.16
2022-08-26T05:21:27.902Z,98951.95
2022-08-26T05:23:35.117Z,98949.96
2022-08-26T05:25:42.434Z,98952.79
2022-08-26T05:27:47.219Z,98953.80
2022-08-26T05:29:56.072Z,98955.11
2022-08-26T05:32:01.576Z,98957.46
2022-08-26T05:34:08.390Z,98956.48
2022-08-26T05:36:16.445Z,98960.95
2022-08-26T05:38:22.498Z,98960.56
2022-08-26T05:40:27.776Z,98960.67
2022-08-26T05:42:32.755Z,98960.61
2022-08-26T05:44:53.720Z,98958.48
2022-08-26T05:47:00.545Z,98957.70
2022-08-26T05:49:12.667Z,98954.67
2022-08-26T05:51:17.935Z,98956.58
2022-08-26T05:53:23.987Z,98952.53
2022-08-26T05:55:30.829Z,98951.71
2022-08-26T05:57:40.396Z,98954.19
2022-08-26T05:59:47.640Z,98956.73
2022-08-26T06:01:53.659Z,98957.41
2022-08-26T06:04:01.699Z,98957.90
2022-08-26T06:06:09.943Z,98959.36
2022-08-26T06:08:15.418Z,98960.11
2022-08-26T06:10:33.402Z,98960.08
2022-08-26T06:12:38.193Z,98960.04
2022-08-26T06:14:43.021Z,98960.42
2022-08-26T06:16:47.764Z,98961.69
2022-08-26T06:18:53.519Z,98965.31
2022-08-26T06:21:01.751Z,98964.50
2022-08-26T06:23:06.747Z,98966.23
2022-08-26T06:25:12.796Z,98963.77
2022-08-26T06:27:17.557Z,98964.30
2022-08-26T06:29:24.863Z,98962.96
2022-08-26T06:31:32.165Z,98961.05
2022-08-26T06:33:38.082Z,98958.29
2022-08-26T06:35:44.279Z,98958.13
2022-08-26T06:37:49.026Z,98960.36
2022-08-26T06:39:54.324Z,98960.86
2022-08-26T06:41:59.362Z,98954.95
2022-08-26T06:44:06.264Z,98954.46
2022-08-26T06:46:13.728Z,98955.55
2022-08-26T06:48:20.674Z,98953.30
2022-08-26T06:50:26.309Z,98952.86
2022-08-26T06:52:31.170Z,98952.86
2022-08-26T06:54:35.978Z,98951.22
2022-08-26T06:56:44.517Z,98947.25
2022-08-26T06:58:53.046Z,98949.21
2022-08-26T07:01:03.839Z,98954.10
2022-08-26T07:03:16.029Z,98955.42
2022-08-26T07:05:20.916Z,98953.45
2022-08-26T07:07:25.641Z,98957.51
2022-08-26T07:09:31.316Z,98958.21
2022-08-26T07:11:37.066Z,98954.80
2022-08-26T07:13:42.045Z,98957.70
2022-08-26T07:15:47.924Z,98952.96
2022-08-26T07:17:58.002Z,98951.41
2022-08-26T07:20:03.312Z,98942.41
2022-08-26T07:22:09.579Z,98943.16
2022-08-26T07:24:14.755Z,98945.24
2022-08-26T07:26:23.231Z,98947.76
2022-08-26T07:28:29.748Z,98945.02
2022-08-26T07:30:38.774Z,98948.92
2022-08-26T07:32:43.583Z,98944.69
2022-08-26T07:34:51.469Z,98944.55
2022-08-26T07:36:57.048Z,98941.80
2022-08-26T07:39:03.409Z,98940.27
2022-08-26T07:41:11.612Z,98936.56
2022-08-26T07:43:19.700Z,98935.64
2022-08-26T07:45:25.657Z,98934.80
2022-08-26T07:47:30.876Z,98933.05
2022-08-26T07:49:36.414Z,98929.65
2022-08-26T07:51:41.860Z,98931.69
2022-08-26T07:53:48.073Z,98932.21
2022-08-26T07:55:57.335Z,98933.56
2022-08-26T07:58:02.796Z,98934.39
2022-08-26T08:00:12.409Z,98934.69
2022-08-26T08:02:17.741Z,98935.23
2022-08-26T08:04:26.518Z,98938.27
2022-08-26T08:06:31.845Z,98938.21
2022-08-26T08:08:36.763Z,98932.58
2022-08-26T08:10:41.679Z,98933.35
2022-08-26T08:12:54.724Z,98932.91
2022-08-26T08:14:59.607Z,98929.66
2022-08-26T08:17:04.652Z,98933.83
2022-08-26T08:19:10.088Z,98928.75
2022-08-26T08:21:21.709Z,98928.61
2022-08-26T08:23:29.262Z,98928.10
2022-08-26T08:25:34.584Z,98928.71
2022-08-26T08:27:40.686Z,98928.31
2022-08-26T08:29:46.626Z,98928.29
2022-08-26T08:31:58.785Z,98928.42
2022-08-26T08:34:04.987Z,98927.14
2022-08-26T08:36:10.098Z,98929.88
2022-08-26T08:38:23.224Z,98926.49
2022-08-26T08:40:29.409Z,98925.70
2022-08-26T08:42:43.664Z,98926.83
2022-08-26T08:44:52.793Z,98922.00
2022-08-26T08:47:03.103Z,98920.27
2022-08-26T08:49:08.845Z,98919.39
2022-08-26T08:51:24.763Z,98920.42
2022-08-26T08:53:33.774Z,98918.02
2022-08-26T08:55:51.492Z,98915.83
2022-08-26T08:58:04.521Z,98916.25
2022-08-26T09:00:16.892Z,98913.02
2022-08-26T09:02:32.193Z,98914.33
2022-08-26T09:04:54.388Z,98910.64
2022-08-26T09:07:02.554Z,98911.54
2022-08-26T09:09:07.790Z,98914.06
2022-08-26T09:11:14.008Z,98912.86
2022-08-26T09:13:26.290Z,98910.77
2022-08-26T09:15:45.003Z,98907.05
2022-08-26T09:17:56.227Z,98906.50
2022-08-26T09:20:12.288Z,98906.58
2022-08-26T09:22:32.336Z,98906.58
2022-08-26T09:24:42.033Z,98903.45
2022-08-26T09:26:53.102Z,98907.52
2022-08-26T09:29:00.324Z,98906.66
2022-08-26T09:31:13.717Z,98906.11
2022-08-26T09:33:26.914Z,98906.70
2022-08-26T09:35:34.003Z,98903.09
2022-08-26T09:37:43.474Z,98901.40
2022-08-26T09:39:48.935Z,98904.65
2022-08-26T09:42:05.025Z,98902.36
2022-08-26T09:44:25.799Z,98902.91
2022-08-26T09:46:31.845Z,98902.32
2022-08-26T09:48:40.561Z,98904.83
2022-08-26T09:50:55.686Z,98899.16
2022-08-26T09:53:13.197Z,98898.19
2022-08-26T09:55:24.078Z,98897.08
2022-08-26T09:57:30.703Z,98896.88
2022-08-26T09:59:35.602Z,98891.45
2022-08-26T10:01:42.701Z,98889.17
2022-08-26T10:03:47.553Z,98894.17
2022-08-26T10:06:00.777Z,98887.35
2022-08-26T10:08:19.900Z,98890.19
2022-08-26T10:10:33.036Z,98885.59
2022-08-26T10:12:44.643Z,98878.95
2022-08-26T10:14:52.920Z,98881.19
2022-08-26T10:17:02.074Z,98882.64
2022-08-26T10:19:11.576Z,98883.45
2022-08-26T10:21:23.450Z,98878.46
2022-08-26T10:23:32.998Z,98876.94
2022-08-26T10:25:42.463Z,98874.60
2022-08-26T10:27:54.627Z,98867.75
2022-08-26T10:30:07.132Z,98869.95
2022-08-26T10:32:19.105Z,98866.89
2022-08-26T10:34:24.195Z,98866.63
2022-08-26T10:36:46.976Z,98864.67
2022-08-26T10:39:05.090Z,98862.09
2022-08-26T10:41:16.795Z,98863.85
2022-08-26T10:43:26.027Z,98858.02
2022-08-26T10:45:37.445Z,98861.28
2022-08-26T10:47:50.289Z,98855.38
2022-08-26T10:50:00.476Z,98853.58
2022-08-26T10:52:16.790Z,98851.04
2022-08-26T10:54:30.042Z,98850.64
2022-08-26T10:56:44.426Z,98849.52
2022-08-26T10:59:03.954Z,98846.79
2022-08-26T11:01:17.119Z,98845.77
2022-08-26T11:03:38.309Z,98843.49
2022-08-26T11:05:43.105Z,98843.01
2022-08-26T11:07:48.812Z,98836.39
2022-08-26T11:09:54.540Z,98836.33
2022-08-26T11:12:01.873Z,98837.23
2022-08-26T11:14:10.705Z,98830.67
2022-08-26T11:16:33.721Z,98829.82
2022-08-26T11:18:51.412Z,98824.67
2022-08-26T11:20:56.196Z,98822.10
2022-08-26T11:23:45.812Z,98818.91
2022-08-26T11:26:16.439Z,98818.06
2022-08-26T11:28:44.180Z,98815.55
2022-08-26T11:30:56.956Z,98808.34
2022-08-26T11:33:03.277Z,98801.23
2022-08-26T11:35:13.308Z,98802.88
2022-08-26T11:39:28.762Z,98795.18
2022-08-26T11:41:34.884Z,98789.58
2022-08-26T11:43:41.071Z,98790.11
2022-08-26T11:45:48.231Z,98781.27
2022-08-26T11:47:55.502Z,98784.00
2022-08-26T11:50:24.557Z,98783.65
2022-08-26T11:52:29.277Z,98784.27
2022-08-26T11:54:34.544Z,98776.91
2022-08-26T11:56:42.136Z,98772.14
2022-08-26T11:58:47.345Z,98768.02
2022-08-26T12:00:55.790Z,98766.14
2022-08-26T12:03:06.272Z,98759.89
2022-08-26T12:05:12.962Z,98761.03
2022-08-26T12:07:23.792Z,98759.16
2022-08-26T12:09:33.219Z,98754.25
2022-08-26T12:11:39.131Z,98747.04
2022-08-26T12:13:56.192Z,98744.72
2022-08-26T12:16:01.412Z,98736.71
2022-08-26T12:18:29.629Z,98735.91
2022-08-26T12:20:36.978Z,98736.33
2022-08-26T12:22:48.085Z,98733.11
2022-08-26T12:24:56.919Z,98734.58
2022-08-26T12:27:20.954Z,98728.92
2022-08-26T12:29:28.019Z,98723.09
2022-08-26T12:31:36.865Z,98722.55
2022-08-26T12:33:41.754Z,98721.33
2022-08-26T12:35:48.543Z,98721.46
2022-08-26T12:37:57.651Z,98722.35
2022-08-26T12:40:35.543Z,98718.77
2022-08-26T12:42:43.755Z,98709.66
2022-08-26T12:44:57.377Z,98708.32
2022-08-26T12:47:06.478Z,98704.45
2022-08-26T12:49:14.358Z,98703.77
2022-08-26T12:51:25.781Z,98702.21
2022-08-26T12:53:33.091Z,98699.40
2022-08-26T12:55:42.379Z,98697.38
2022-08-26T12:57:47.287Z,98695.38
2022-08-26T13:00:09.536Z,98686.90
2022-08-26T13:02:38.305Z,98688.33
2022-08-26T13:04:43.916Z,98686.41
2022-08-26T13:06:48.727Z,98681.61
2022-08-26T13:08:55.215Z,98685.26
2022-08-26T13:11:11.989Z,98681.09
2022-08-26T13:13:17.233Z,98682.17
2022-08-26T13:15:22.061Z,98680.64
2022-08-26T13:17:27.341Z,98676.89
2022-08-26T13:19:32.045Z,98675.96
2022-08-26T13:21:41.228Z,98672.41
2022-08-26T13:23:46.392Z,98669.95
2022-08-26T13:25:51.553Z,98663.47
2022-08-26T13:27:56.281Z,98658.99
2022-08-26T13:30:01.033Z,98660.17
2022-08-26T13:32:08.023Z,98658.61
2022-08-26T13:34:16.740Z,98651.59
2022-08-26T13:36:21.477Z,98648.39
2022-08-26T13:38:33.764Z,98645.73
2022-08-26T13:40:38.827Z,98641.05
2022-08-26T13:42:49.903Z,98638.80
2022-08-26T13:44:54.920Z,98638.21
2022-08-26T13:46:59.717Z,98636.05
2022-08-26T13:49:04.570Z,98636.66
2022-08-26T13:51:09.501Z,98636.05
2022-08-26T13:53:14.905Z,98635.33
2022-08-26T13:55:19.824Z,98632.92
2022-08-26T13:57:24.576Z,98627.94
2022-08-26T13:59:29.385Z,98627.26
2022-08-26T14:01:34.865Z,98627.27
2022-08-26T14:03:39.762Z,98620.48
2022-08-26T14:05:44.609Z,98619.83
2022-08-26T14:07:49.337Z,98622.23
2022-08-26T14:09:54.097Z,98620.54
2022-08-26T14:12:00.968Z,98620.82
2022-08-26T14:14:07.066Z,98616.79
2022-08-26T14:16:16.077Z,98621.29
2022-08-26T14:18:27.784Z,98616.06
2022-08-26T14:20:34.985Z,98615.45
2022-08-26T14:22:52.080Z,98614.63
2022-08-26T14:25:08.218Z,98616.68
2022-08-26T14:27:13.240Z,98611.75
2022-08-26T14:29:18.004Z,98609.88
2022-08-26T14:31:22.928Z,98604.58
2022-08-26T14:33:31.222Z,98603.83
2022-08-26T14:35:36.001Z,98598.09
2022-08-26T14:37:40.879Z,98599.83
2022-08-26T14:39:46.225Z,98602.15
2022-08-26T14:41:55.234Z,98602.16
2022-08-26T14:44:02.772Z,98601.55
2022-08-26T14:46:07.798Z,98600.52
2022-08-26T14:48:12.713Z,98600.65
2022-08-26T14:50:20.408Z,98605.14
2022-08-26T14:52:25.177Z,98603.56
2022-08-26T14:54:30.176Z,98605.49
2022-08-26T14:56:36.097Z,98605.02
2022-08-26T14:58:40.891Z,98609.11
2022-08-26T15:00:45.749Z,98606.23
2022-08-26T15:02:51.449Z,98604.04
2022-08-26T15:04:56.363Z,98603.17
2022-08-26T15:07:02.195Z,98597.27
2022-08-26T15:09:07.082Z,98597.39
2022-08-26T15:11:12.727Z,98596.58
2022-08-26T15:13:17.459Z,98596.67
2022-08-26T15:15:22.420Z,98597.28
2022-08-26T15:17:27.724Z,98597.27
2022-08-26T15:19:32.783Z,98599.96
2022-08-26T15:21:38.241Z,98592.66
2022-08-26T15:23:43.243Z,98589.48
2022-08-26T15:25:52.700Z,98586.88
2022-08-26T15:27:57.503Z,98586.89
2022-08-26T15:30:04.008Z,98588.54
2022-08-26T15:32:09.048Z,98587.70
2022-08-26T15:34:16.679Z,98591.60
2022-08-26T15:36:21.961Z,98587.35
2022-08-26T15:38:28.121Z,98586.23
2022-08-26T15:40:32.941Z,98583.10
2022-08-26T15:42:37.934Z,98582.09
2022-08-26T15:44:45.688Z,98585.36
2022-08-26T15:46:55.293Z,98585.64
2022-08-26T15:49:03.394Z,98584.64
2022-08-26T15:51:18.287Z,98580.48
2022-08-26T15:53:23.573Z,98578.15
2022-08-26T15:55:28.488Z,98580.09
2022-08-26T15:57:33.264Z,98575.73
2022-08-26T15:59:38.085Z,98576.41
2022-08-26T16:01:43.002Z,98575.85
2022-08-26T16:03:47.777Z,98572.95
2022-08-26T16:05:52.974Z,98577.80
2022-08-26T16:07:57.738Z,98574.86
2022-08-26T16:10:02.596Z,98576.91
2022-08-26T16:12:07.771Z,98577.52
2022-08-26T16:14:12.621Z,98575.38
2022-08-26T16:16:18.385Z,98578.34
2022-08-26T16:18:23.652Z,98575.78
2022-08-26T16:20:28.948Z,98573.69
2022-08-26T16:22:33.689Z,98574.55
2022-08-26T16:24:38.852Z,98568.91
2022-08-26T16:26:44.420Z,98569.52
2022-08-26T16:28:49.448Z,98564.59
2022-08-26T16:30:54.311Z,98566.48
2022-08-26T16:32:59.145Z,98566.08
2022-08-26T16:35:04.267Z,98565.34
2022-08-26T16:37:09.042Z,98564.25
2022-08-26T16:39:14.310Z,98564.83
2022-08-26T16:41:19.567Z,98565.77
2022-08-26T16:43:24.377Z,98565.73
2022-08-26T16:45:29.220Z,98567.30
2022-08-26T16:47:34.216Z,98566.36
2022-08-26T16:49:39.208Z,98566.20
2022-08-26T16:51:43.906Z,98565.90
2022-08-26T16:53:49.135Z,98562.77
2022-08-26T16:55:54.080Z,98561.33
2022-08-26T16:57:59.333Z,98556.19
2022-08-26T17:00:09.694Z,98559.26
2022-08-26T17:02:14.493Z,98559.77
2022-08-26T17:04:19.222Z,98561.99
2022-08-26T17:06:24.073Z,98562.23
2022-08-26T17:08:29.120Z,98560.88
2022-08-26T17:10:34.396Z,98563.56
2022-08-26T17:12:39.692Z,98560.84
2022-08-26T17:14:45.810Z,98559.00
2022-08-26T17:16:50.724Z,98555.90
2022-08-26T17:18:56.914Z,98554.23
2022-08-26T17:21:04.611Z,98554.70
2022-08-26T17:23:09.600Z,98555.85
2022-08-26T17:25:17.884Z,98557.36
2022-08-26T17:27:22.574Z,98558.14
2022-08-26T17:29:27.283Z,98558.79
2022-08-26T17:31:32.178Z,98560.19
2022-08-26T17:33:37.539Z,98559.20
2022-08-26T17:35:42.927Z,98553.12
2022-08-26T17:37:47.742Z,98555.09
2022-08-26T17:39:52.490Z,98558.25
2022-08-26T17:41:57.334Z,98560.50
2022-08-26T17:44:02.185Z,98563.10
2022-08-26T17:46:09.039Z,98565.13
2022-08-26T17:48:14.089Z,98563.99
2022-08-26T17:50:19.530Z,98565.66
2022-08-26T17:52:24.275Z,98567.19
2022-08-26T17:54:29.320Z,98565.28
2022-08-26T17:56:35.953Z,98565.88
2022-08-26T17:58:40.956Z,98564.81
2022-08-26T18:00:54.081Z,98568.52
2022-08-26T18:02:58.835Z,98568.92
2022-08-26T18:05:03.751Z,98563.67
2022-08-26T18:07:08.572Z,98566.83
2022-08-26T18:09:13.406Z,98570.88
2022-08-26T18:11:21.593Z,98573.22
2022-08-26T18:13:26.372Z,98578.19
2022-08-26T18:15:31.259Z,98580.48
2022-08-26T18:17:36.344Z,98578.77
2022-08-26T18:19:41.047Z,98583.25
2022-08-26T18:21:45.918Z,98583.98
2022-08-26T18:23:52.258Z,98583.80
2022-08-26T18:25:57.138Z,98585.20
2022-08-26T18:28:05.243Z,98590.73
2022-08-26T18:30:20.348Z,98593.76
2022-08-26T18:32:25.331Z,98592.51
2022-08-26T18:34:31.733Z,98590.17
2022-08-26T18:36:38.020Z,98593.84
2022-08-26T18:38:42.864Z,98595.52
2022-08-26T18:40:47.675Z,98596.92
2022-08-26T18:42:54.222Z,98601.90
2022-08-26T18:44:59.303Z,98599.05
2022-08-26T18:47:04.521Z,98599.08
2022-08-26T18:49:09.893Z,98602.05
2022-08-26T18:51:19.355Z,98604.21
2022-08-26T18:53:24.066Z,98609.67
2022-08-26T18:55:28.977Z,98612.50
2022-08-26T18:57:34.379Z,98612.36
2022-08-26T18:59:39.198Z,98611.35
2022-08-26T19:01:44.417Z,98610.38
2022-08-26T19:03:49.307Z,98611.98
2022-08-26T19:05:54.232Z,98611.50
2022-08-26T19:07:59.347Z,98613.59
2022-08-26T19:10:04.618Z,98618.45
2022-08-26T19:12:10.737Z,98621.61
2022-08-26T19:14:16.851Z,98621.38
2022-08-26T19:16:24.883Z,98627.70
2022-08-26T19:18:30.523Z,98622.64
2022-08-26T19:20:44.719Z,98624.95
2022-08-26T19:22:52.087Z,98630.86
2022-08-26T19:24:57.396Z,98632.46
2022-08-26T19:27:03.314Z,98636.69
2022-08-26T19:29:08.498Z,98638.03
2022-08-26T19:31:14.095Z,98639.86
2022-08-26T19:33:19.312Z,98641.77
2022-08-26T19:35:24.211Z,98641.15
2022-08-26T19:37:29.919Z,98645.13
2022-08-26T19:39:34.974Z,98643.60
2022-08-26T19:41:41.048Z,98641.42
2022-08-26T19:43:46.607Z,98642.98
2022-08-26T19:45:52.070Z,98647.10
2022-08-26T19:47:57.297Z,98649.95
2022-08-26T19:50:02.049Z,98652.65
2022-08-26T19:52:08.749Z,98652.59
2022-08-26T19:54:13.826Z,98653.09
2022-08-26T19:56:19.510Z,98652.96
2022-08-26T19:58:24.794Z,98655.00
2022-08-26T20:00:31.354Z,98655.23
2022-08-26T20:02:36.484Z,98658.69
2022-08-26T20:04:41.929Z,98658.98
2022-08-26T20:06:47.179Z,98659.89
2022-08-26T20:08:56.955Z,98657.12
2022-08-26T20:11:04.872Z,98656.63
2022-08-26T20:13:09.859Z,98658.94
2022-08-26T20:15:15.232Z,98664.67
2022-08-26T20:17:20.505Z,98666.08
2022-08-26T20:19:25.664Z,98669.27
2022-08-26T20:21:32.152Z,98668.75
2022-08-26T20:23:37.297Z,98673.44
2022-08-26T20:25:42.498Z,98670.07
2022-08-26T20:27:47.644Z,98673.56
2022-08-26T20:29:52.757Z,98677.55
2022-08-26T20:31:58.194Z,98678.90
2022-08-26T20:34:03.402Z,98677.33
2022-08-26T20:36:09.080Z,98674.35
2022-08-26T20:38:14.638Z,98675.50
2022-08-26T20:40:20.651Z,98675.90
2022-08-26T20:42:25.531Z,98674.61
2022-08-26T20:44:30.459Z,98672.23
2022-08-26T20:46:35.687Z,98673.42
2022-08-26T20:48:40.543Z,98670.84
2022-08-26T20:50:45.285Z,98671.05
2022-08-26T20:52:50.137Z,98666.64
2022-08-26T20:54:55.104Z,98667.77
2022-08-26T20:57:00.369Z,98661.61
2022-08-26T20:59:06.979Z,98662.48
2022-08-26T21:01:18.651Z,98659.94
2022-08-26T21:03:23.904Z,98658.22
2022-08-26T21:05:28.908Z,98657.20
2022-08-26T21:07:33.837Z,98661.05
2022-08-26T21:09:38.991Z,98662.73
2022-08-26T21:11:44.600Z,98662.11
2022-08-26T21:14:04.315Z,98665.73
2022-08-26T21:16:12.018Z,98669.10
2022-08-26T21:18:16.875Z,98667.08
2022-08-26T21:20:21.760Z,98664.42
2022-08-26T21:22:26.602Z,98665.63
2022-08-26T21:24:31.557Z,98668.96
2022-08-26T21:26:36.913Z,98670.68
2022-08-26T21:28:43.946Z,98671.13
2022-08-26T21:30:48.688Z,98674.13
2022-08-26T21:32:53.886Z,98673.06
2022-08-26T21:34:59.833Z,98677.34
2022-08-26T21:37:05.576Z,98673.82
2022-08-26T21:39:21.318Z,98681.09
2022-08-26T21:41:27.214Z,98678.26
2022-08-26T21:43:35.150Z,98679.17
2022-08-26T21:45:42.258Z,98682.92
2022-08-26T21:47:47.516Z,98681.67
2022-08-26T21:49:54.832Z,98684.54
2022-08-26T21:51:59.610Z,98688.63
2022-08-26T21:54:10.834Z,98688.22
2022-08-26T21:56:19.860Z,98686.70
2022-08-26T21:58:24.668Z,98688.32
2022-08-26T22:00:29.810Z,98688.52
2022-08-26T22:02:37.369Z,98686.77
2022-08-26T22:04:46.838Z,98692.96
2022-08-26T22:06:56.725Z,98690.91
2022-08-26T22:09:03.086Z,98693.86
2022-08-26T22:11:08.295Z,98692.59
2022-08-26T22:13:13.440Z,98691.03
2022-08-26T22:15:20.277Z,98694.50
2022-08-26T22:17:25.066Z,98696.84
2022-08-26T22:19:30.052Z,98690.91
2022-08-26T22:21:38.059Z,98689.02
2022-08-26T22:23:42.921Z,98688.31
2022-08-26T22:25:47.871Z,98685.08
2022-08-26T22:27:52.768Z,98687.64
2022-08-26T22:29:57.484Z,98685.16
2022-08-26T22:32:02.951Z,98685.77
2022-08-26T22:34:09.528Z,98684.51
2022-08-26T22:36:20.608Z,98685.33
2022-08-26T22:38:25.545Z,98690.64
2022-08-26T22:40:30.514Z,98688.24
2022-08-26T22:42:35.518Z,98689.92
2022-08-26T22:44:40.326Z,98683.24
2022-08-26T22:46:45.662Z,98682.27
2022-08-26T22:48:54.029Z,98681.16
2022-08-26T22:51:00.366Z,98679.30
2022-08-26T22:53:05.264Z,98683.89
2022-08-26T22:55:11.681Z,98677.11
2022-08-26T22:57:16.412Z,98681.16
2022-08-26T22:59:21.140Z,98681.31
2022-08-26T23:01:29.048Z,98681.42
2022-08-26T23:03:34.263Z,98674.23
2022-08-26T23:05:40.748Z,98679.58
2022-08-26T23:07:45.543Z,98678.82
2022-08-26T23:09:50.358Z,98682.17
2022-08-26T23:11:55.636Z,98684.05
2022-08-26T23:14:00.427Z,98682.20
2022-08-26T23:16:09.709Z,98680.22
2022-08-26T23:18:15.337Z,98677.77
2022-08-26T23:20:20.247Z,98678.74
2022-08-26T23:22:25.348Z,98680.44
2022-08-26T23:24:30.185Z,98685.84
2022-08-26T23:26:35.847Z,98685.24
2022-08-26T23:28:40.577Z,98689.03
2022-08-26T23:30:45.253Z,98687.95
2022-08-26T23:32:50.349Z,98690.38
2022-08-26T23:34:55.135Z,98689.36
2022-08-26T23:37:00.995Z,98691.07
2022-08-26T23:39:06.424Z,98690.32
2022-08-26T23:41:11.231Z,98689.30
2022-08-26T23:43:17.180Z,98688.91
2022-08-26T23:45:22.799Z,98691.90
2022-08-26T23:47:27.662Z,98698.43
2022-08-26T23:49:33.282Z,98695.25
2022-08-26T23:51:39.159Z,98691.64
2022-08-26T23:53:44.040Z,98696.31
2022-08-26T23:55:52.116Z,98694.06
2022-08-26T23:57:56.823Z,98699.27
